createdAt,value
2022-10-04T00:01:53.924Z,85.92
2022-10-04T00:04:40.761Z,86.30
2022-10-04T00:07:18.537Z,86.48
2022-10-04T00:09:49.863Z,87.00
2022-10-04T00:12:28.345Z,86.98
2022-10-04T00:15:02.344Z,87.14
2022-10-04T00:17:37.002Z,87.13
2022-10-04T00:20:41.775Z,86.73
2022-10-04T00:23:23.319Z,86.70
2022-10-04T00:25:52.163Z,86.35
2022-10-04T00:28:21.605Z,86.60
2022-10-04T00:31:13.092Z,86.60
2022-10-04T00:33:47.901Z,86.73
2022-10-04T00:36:26.430Z,86.85
2022-10-04T00:39:04.251Z,87.36
2022-10-04T00:41:51.881Z,87.59
2022-10-04T00:44:27.936Z,87.39
2022-10-04T00:46:56.926Z,87.54
2022-10-04T00:49:29.486Z,87.50
2022-10-04T00:52:10.490Z,87.99
2022-10-04T00:54:44.399Z,87.91
2022-10-04T00:57:32.034Z,87.65
2022-10-04T01:00:03.715Z,87.76
2022-10-04T01:02:46.009Z,87.71
2022-10-04T01:05:26.366Z,87.68
2022-10-04T01:08:04.511Z,87.43
2022-10-04T01:10:42.062Z,87.18
2022-10-04T01:13:22.235Z,86.82
2022-10-04T01:15:59.417Z,86.60
2022-10-04T01:18:25.747Z,86.61
2022-10-04T01:21:21.196Z,86.35
2022-10-04T01:23:57.481Z,86.21
2022-10-04T01:26:26.868Z,86.25
2022-10-04T01:28:59.755Z,86.44
2022-10-04T01:31:27.424Z,86.47
2022-10-04T01:33:55.627Z,87.07
2022-10-04T01:36:22.492Z,87.13
2022-10-04T01:38:49.632Z,87.83
2022-10-04T01:41:19.896Z,88.06
2022-10-04T01:43:52.705Z,87.46
2022-10-04T01:46:27.393Z,87.47
2022-10-04T01:48:57.015Z,87.07
2022-10-04T01:51:33.809Z,87.33
2022-10-04T01:54:05.165Z,87.08
2022-10-04T01:56:46.758Z,87.13
2022-10-04T01:59:25.545Z,87.00
2022-10-04T02:02:07.724Z,86.66
2022-10-04T02:04:38.662Z,86.73
2022-10-04T02:07:12.453Z,86.79
2022-10-04T02:09:43.632Z,87.26
2022-10-04T02:12:16.261Z,87.28
2022-10-04T02:14:53.091Z,87.02
2022-10-04T02:17:30.291Z,87.01
2022-10-04T02:19:58.008Z,87.48
2022-10-04T02:22:25.852Z,87.19
2022-10-04T02:24:54.874Z,87.43
2022-10-04T02:27:27.512Z,87.03
2022-10-04T02:30:04.220Z,86.97
2022-10-04T02:32:50.593Z,87.26
2022-10-04T02:35:18.315Z,87.37
2022-10-04T02:37:45.996Z,87.34
2022-10-04T02:40:16.067Z,87.08
2022-10-04T02:42:57.419Z,86.89
2022-10-04T02:45:33.303Z,87.29
2022-10-04T02:48:12.606Z,87.32
2022-10-04T02:50:50.342Z,87.41
2022-10-04T02:53:26.997Z,87.53
2022-10-04T02:55:55.849Z,87.86
2022-10-04T02:58:25.422Z,88.13
2022-10-04T03:00:58.508Z,88.13
2022-10-04T03:03:28.221Z,87.94
2022-10-04T03:05:57.204Z,88.72
2022-10-04T03:08:24.212Z,88.64
2022-10-04T03:10:50.972Z,88.95
2022-10-04T03:13:20.036Z,89.15
2022-10-04T03:15:49.352Z,89.42
2022-10-04T03:18:16.917Z,89.41
2022-10-04T03:20:43.997Z,88.75
2022-10-04T03:23:12.482Z,88.98
2022-10-04T03:25:51.184Z,88.70
2022-10-04T03:28:18.004Z,88.39
2022-10-04T03:30:46.503Z,88.01
2022-10-04T03:33:21.504Z,87.64
2022-10-04T03:35:51.739Z,88.07
2022-10-04T03:38:19.206Z,88.33
2022-10-04T03:40:52.923Z,88.26
2022-10-04T03:43:24.332Z,88.42
2022-10-04T03:45:52.317Z,88.28
2022-10-04T03:48:28.989Z,88.20
2022-10-04T03:50:56.442Z,87.80
2022-10-04T03:53:30.486Z,88.19
2022-10-04T03:56:03.425Z,88.07
2022-10-04T03:58:31.497Z,87.82
2022-10-04T04:01:10.778Z,87.93
2022-10-04T04:04:00.662Z,87.77
2022-10-04T04:06:34.928Z,87.42
2022-10-04T04:09:04.580Z,87.71
2022-10-04T04:11:31.059Z,88.10
2022-10-04T04:14:17.312Z,88.15
2022-10-04T04:16:43.782Z,88.35
2022-10-04T04:19:13.412Z,88.10
2022-10-04T04:21:41.385Z,88.24
2022-10-04T04:24:19.630Z,87.55
2022-10-04T04:26:49.996Z,87.85
2022-10-04T04:29:26.712Z,87.62
2022-10-04T04:31:59.741Z,88.12
2022-10-04T04:34:34.960Z,87.74
2022-10-04T04:37:04.731Z,87.83
2022-10-04T04:39:40.890Z,87.42
2022-10-04T04:42:10.348Z,87.41
2022-10-04T04:44:40.232Z,87.75
2022-10-04T04:47:10.147Z,87.49
2022-10-04T04:49:40.148Z,87.54
2022-10-04T04:52:16.773Z,87.44
2022-10-04T04:54:46.940Z,87.32
2022-10-04T04:57:17.304Z,87.34
2022-10-04T04:59:47.793Z,87.75
2022-10-04T05:02:28.993Z,87.68
2022-10-04T05:05:34.448Z,87.62
2022-10-04T05:08:20.648Z,87.38
2022-10-04T05:10:57.990Z,87.42
2022-10-04T05:13:33.595Z,87.82
2022-10-04T05:16:01.185Z,88.10
2022-10-04T05:18:30.673Z,88.35
2022-10-04T05:21:03.755Z,88.69
2022-10-04T05:23:30.274Z,88.39
2022-10-04T05:26:00.167Z,88.16
2022-10-04T05:28:27.105Z,88.30
2022-10-04T05:31:02.254Z,88.38
2022-10-04T05:33:44.661Z,88.70
2022-10-04T05:36:11.150Z,89.10
2022-10-04T05:38:57.613Z,89.50
2022-10-04T05:41:47.346Z,89.89
2022-10-04T05:44:26.307Z,90.46
2022-10-04T05:46:58.727Z,90.74
2022-10-04T05:49:28.478Z,90.93
2022-10-04T05:52:00.916Z,90.93
2022-10-04T05:54:31.288Z,90.99
2022-10-04T05:57:10.826Z,91.09
2022-10-04T06:00:00.510Z,91.46
2022-10-04T06:02:48.121Z,91.87
2022-10-04T06:05:26.923Z,91.48
2022-10-04T06:08:01.978Z,91.46
2022-10-04T06:10:57.381Z,91.60
2022-10-04T06:13:36.051Z,91.63
2022-10-04T06:16:30.321Z,91.32
2022-10-04T06:19:29.717Z,91.24
2022-10-04T06:22:16.995Z,91.28
2022-10-04T06:24:51.594Z,91.20
2022-10-04T06:27:27.084Z,91.21
2022-10-04T06:30:04.998Z,91.32
2022-10-04T06:32:49.733Z,91.44
2022-10-04T06:35:32.403Z,91.50
2022-10-04T06:38:08.734Z,91.51
2022-10-04T06:40:54.127Z,91.50
2022-10-04T06:44:00.283Z,91.73
2022-10-04T06:46:49.867Z,91.73
2022-10-04T06:49:44.964Z,91.54
2022-10-04T06:52:25.371Z,91.69
2022-10-04T06:55:23.399Z,91.90
2022-10-04T06:58:13.807Z,91.66
2022-10-04T07:01:29.692Z,91.30
2022-10-04T07:04:20.500Z,91.46
2022-10-04T07:07:15.856Z,91.22
2022-10-04T07:09:43.595Z,91.08
2022-10-04T07:12:16.434Z,90.97
2022-10-04T07:14:51.957Z,91.02
2022-10-04T07:17:26.907Z,90.63
2022-10-04T07:19:54.564Z,90.76
2022-10-04T07:22:42.020Z,90.48
2022-10-04T07:25:24.208Z,90.09
2022-10-04T07:28:27.371Z,90.09
2022-10-04T07:31:05.304Z,89.84
2022-10-04T07:33:54.605Z,89.65
2022-10-04T07:36:43.211Z,89.80
2022-10-04T07:39:22.006Z,89.51
2022-10-04T07:41:54.569Z,89.33
2022-10-04T07:44:34.028Z,88.88
2022-10-04T07:47:09.249Z,88.81
2022-10-04T07:49:39.414Z,88.46
2022-10-04T07:52:28.545Z,87.89
2022-10-04T07:55:07.134Z,87.45
2022-10-04T07:57:55.261Z,86.57
2022-10-04T08:00:41.500Z,85.92
2022-10-04T08:03:46.436Z,85.40
2022-10-04T08:06:26.440Z,85.38
2022-10-04T08:09:26.620Z,84.93
2022-10-04T08:12:06.658Z,84.59
2022-10-04T08:14:39.404Z,84.62
2022-10-04T08:17:31.074Z,84.02
2022-10-04T08:20:25.308Z,83.48
2022-10-04T08:23:22.628Z,82.89
2022-10-04T08:26:07.627Z,82.06
2022-10-04T08:29:34.728Z,81.82
2022-10-04T08:32:13.184Z,80.64
2022-10-04T08:34:45.433Z,80.28
2022-10-04T08:37:38.029Z,79.41
2022-10-04T08:40:13.600Z,78.32
2022-10-04T08:42:45.955Z,76.97
2022-10-04T08:45:48.158Z,75.60
2022-10-04T08:48:39.274Z,76.04
2022-10-04T08:51:08.548Z,76.27
2022-10-04T08:53:53.527Z,75.71
2022-10-04T08:56:38.637Z,75.64
2022-10-04T08:59:39.858Z,75.57
2022-10-04T09:02:30.707Z,74.50
2022-10-04T09:05:32.365Z,74.21
2022-10-04T09:08:30.416Z,72.91
2022-10-04T09:11:15.380Z,74.10
2022-10-04T09:14:09.674Z,72.85
2022-10-04T09:16:46.600Z,72.36
2022-10-04T09:19:38.962Z,71.91
2022-10-04T09:22:40.834Z,72.91
2022-10-04T09:25:29.318Z,71.78
2022-10-04T09:28:20.960Z,70.45
2022-10-04T09:30:56.243Z,70.98
2022-10-04T09:34:04.339Z,70.76
2022-10-04T09:37:01.902Z,68.49
2022-10-04T09:39:48.832Z,67.64
2022-10-04T09:42:33.546Z,67.73
2022-10-04T09:45:06.245Z,67.19
2022-10-04T09:47:40.984Z,66.41
2022-10-04T09:50:37.321Z,67.29
2022-10-04T09:53:19.998Z,66.61
2022-10-04T09:56:07.747Z,66.49
2022-10-04T09:59:13.536Z,67.14
2022-10-04T10:02:29.017Z,66.31
2022-10-04T10:05:31.584Z,67.33
2022-10-04T10:08:03.979Z,66.37
2022-10-04T10:11:14.748Z,65.76
2022-10-04T10:13:59.607Z,65.82
2022-10-04T10:16:40.769Z,64.89
2022-10-04T10:19:37.418Z,65.10
2022-10-04T10:22:40.249Z,64.50
2022-10-04T10:25:38.946Z,64.77
2022-10-04T10:28:20.276Z,64.49
2022-10-04T10:31:08.590Z,62.53
2022-10-04T10:33:53.048Z,63.36
2022-10-04T10:36:51.924Z,63.72
2022-10-04T10:39:33.134Z,63.06
2022-10-04T10:42:38.798Z,61.87
2022-10-04T10:45:35.394Z,61.29
2022-10-04T10:48:13.353Z,61.25
2022-10-04T10:51:10.352Z,61.10
2022-10-04T10:53:43.903Z,61.57
2022-10-04T10:56:13.178Z,59.89
2022-10-04T10:59:08.846Z,59.95
2022-10-04T11:01:50.493Z,60.37
2022-10-04T11:04:45.800Z,59.31
2022-10-04T11:07:43.683Z,58.41
2022-10-04T11:10:19.066Z,58.17
2022-10-04T11:13:08.747Z,58.00
2022-10-04T11:16:07.694Z,58.44
2022-10-04T11:18:58.518Z,56.67
2022-10-04T11:21:36.631Z,57.35
2022-10-04T11:24:28.783Z,55.77
2022-10-04T11:26:55.805Z,56.50
2022-10-04T11:29:25.136Z,56.14
2022-10-04T11:32:00.462Z,56.04
2022-10-04T11:35:12.487Z,57.61
2022-10-04T11:38:06.670Z,57.95
2022-10-04T11:40:54.544Z,57.26
2022-10-04T11:43:36.435Z,57.25
2022-10-04T11:46:23.846Z,56.94
2022-10-04T11:49:06.085Z,57.21
2022-10-04T11:52:02.149Z,57.42
2022-10-04T11:54:47.702Z,58.32
2022-10-04T11:57:38.317Z,57.88
2022-10-04T12:00:18.062Z,59.10
2022-10-04T12:03:14.429Z,57.42
2022-10-04T12:06:03.853Z,56.81
2022-10-04T12:09:09.349Z,56.97
2022-10-04T12:12:28.079Z,55.90
2022-10-04T12:15:30.154Z,57.40
2022-10-04T12:18:17.833Z,56.82
2022-10-04T12:21:13.673Z,56.18
2022-10-04T12:24:09.102Z,56.44
2022-10-04T12:26:52.687Z,56.00
2022-10-04T12:29:45.193Z,56.63
2022-10-04T12:32:35.307Z,57.09
2022-10-04T12:35:19.445Z,57.19
2022-10-04T12:38:08.422Z,55.27
2022-10-04T12:40:48.826Z,53.67
2022-10-04T12:43:40.102Z,53.05
2022-10-04T12:46:12.513Z,53.57
2022-10-04T12:49:08.572Z,52.60
2022-10-04T12:51:34.817Z,53.21
2022-10-04T12:54:13.441Z,51.92
2022-10-04T12:57:04.000Z,51.94
2022-10-04T12:59:43.641Z,51.45
2022-10-04T13:02:35.084Z,52.52
2022-10-04T13:05:13.944Z,52.39
2022-10-04T13:08:18.309Z,52.46
2022-10-04T13:11:09.482Z,49.55
2022-10-04T13:14:01.107Z,49.80
2022-10-04T13:20:06.428Z,50.03
2022-10-04T13:22:56.426Z,50.22
2022-10-04T13:25:41.277Z,50.18
2022-10-04T13:28:31.813Z,49.02
2022-10-04T13:31:23.842Z,49.91
2022-10-04T13:34:09.351Z,50.76
2022-10-04T13:37:14.013Z,50.07
2022-10-04T13:39:53.424Z,49.20
2022-10-04T13:42:33.325Z,49.65
2022-10-04T13:45:21.552Z,48.91
2022-10-04T13:48:09.249Z,50.72
2022-10-04T13:50:58.943Z,50.62
2022-10-04T13:53:53.990Z,51.64
2022-10-04T13:56:40.111Z,52.53
2022-10-04T13:59:18.600Z,52.98
2022-10-04T14:02:29.754Z,52.41
2022-10-04T14:05:10.600Z,53.04
2022-10-04T14:08:14.813Z,54.08
2022-10-04T14:10:53.289Z,53.66
2022-10-04T14:13:50.561Z,52.64
2022-10-04T14:16:41.743Z,54.29
2022-10-04T14:19:30.584Z,54.80
2022-10-04T14:22:09.037Z,54.33
2022-10-04T14:24:35.443Z,53.89
2022-10-04T14:27:24.834Z,54.03
2022-10-04T14:30:09.914Z,54.17
2022-10-04T14:32:45.793Z,54.86
2022-10-04T14:35:12.066Z,55.12
2022-10-04T14:37:57.369Z,54.67
2022-10-04T14:40:45.406Z,54.64
2022-10-04T14:43:30.512Z,53.97
2022-10-04T14:46:25.012Z,54.40
2022-10-04T14:48:59.241Z,53.50
2022-10-04T14:51:32.215Z,54.69
2022-10-04T14:54:26.814Z,55.26
2022-10-04T14:57:04.064Z,55.21
2022-10-04T15:00:15.728Z,55.89
2022-10-04T15:03:03.005Z,54.82
2022-10-04T15:05:44.308Z,55.28
2022-10-04T15:08:24.234Z,55.69
2022-10-04T15:11:16.833Z,55.40
2022-10-04T15:13:55.802Z,55.34
2022-10-04T15:16:31.033Z,56.30
2022-10-04T15:19:04.031Z,56.29
2022-10-04T15:21:50.991Z,56.87
2022-10-04T15:24:17.493Z,57.06
2022-10-04T15:26:59.093Z,56.82
2022-10-04T15:29:32.837Z,58.15
2022-10-04T15:32:16.727Z,57.94
2022-10-04T15:35:06.697Z,58.18
2022-10-04T15:37:49.841Z,58.69
2022-10-04T15:40:25.113Z,59.33
2022-10-04T15:43:20.468Z,59.81
2022-10-04T15:46:00.779Z,60.16
2022-10-04T15:48:53.781Z,60.27
2022-10-04T15:51:41.520Z,60.53
2022-10-04T15:54:13.736Z,60.81
2022-10-04T15:56:39.985Z,61.14
2022-10-04T15:59:28.639Z,61.92
2022-10-04T16:02:21.218Z,61.82
2022-10-04T16:05:14.045Z,61.59
2022-10-04T16:08:02.032Z,62.19
2022-10-04T16:10:58.414Z,62.48
2022-10-04T16:13:39.061Z,62.88
2022-10-04T16:16:17.894Z,63.40
2022-10-04T16:18:51.276Z,63.24
2022-10-04T16:21:42.612Z,63.24
2022-10-04T16:24:45.547Z,63.75
2022-10-04T16:27:26.696Z,64.11
2022-10-04T16:30:27.191Z,64.26
2022-10-04T16:33:26.780Z,64.53
2022-10-04T16:36:20.456Z,64.67
2022-10-04T16:39:07.985Z,65.06
2022-10-04T16:41:41.259Z,65.21
2022-10-04T16:44:28.998Z,65.53
2022-10-04T16:47:00.124Z,65.43
2022-10-04T16:49:41.241Z,65.80
2022-10-04T16:52:35.112Z,65.86
2022-10-04T16:55:24.075Z,66.01
2022-10-04T16:58:27.296Z,66.31
2022-10-04T17:01:29.579Z,66.46
2022-10-04T17:04:14.767Z,66.72
2022-10-04T17:06:54.261Z,67.02
2022-10-04T17:10:05.824Z,67.27
2022-10-04T17:13:00.123Z,67.54
2022-10-04T17:15:48.484Z,68.00
2022-10-04T17:18:38.442Z,67.88
2022-10-04T17:21:22.776Z,67.90
2022-10-04T17:24:38.680Z,68.08
2022-10-04T17:27:56.266Z,68.14
2022-10-04T17:30:26.344Z,68.24
2022-10-04T17:32:58.563Z,68.51
2022-10-04T17:36:02.265Z,68.78
2022-10-04T17:38:44.633Z,69.01
2022-10-04T17:41:10.891Z,69.03
2022-10-04T17:43:55.904Z,69.39
2022-10-04T17:46:29.281Z,69.36
2022-10-04T17:49:20.537Z,69.63
2022-10-04T17:52:08.261Z,69.53
2022-10-04T17:55:16.615Z,69.96
2022-10-04T17:58:23.137Z,69.92
2022-10-04T18:01:19.215Z,69.98
2022-10-04T18:03:52.347Z,69.98
2022-10-04T18:06:43.030Z,70.19
2022-10-04T18:09:30.767Z,70.46
2022-10-04T18:12:04.986Z,70.50
2022-10-04T18:15:21.021Z,70.69
2022-10-04T18:17:50.547Z,70.77
2022-10-04T18:20:29.209Z,70.69
2022-10-04T18:23:01.581Z,70.81
2022-10-04T18:25:31.073Z,70.70
2022-10-04T18:28:09.624Z,70.83
2022-10-04T18:30:48.452Z,71.09
2022-10-04T18:33:25.904Z,71.35
2022-10-04T18:36:24.606Z,71.59
2022-10-04T18:39:21.886Z,71.53
2022-10-04T18:42:16.172Z,71.76
2022-10-04T18:45:18.656Z,71.55
2022-10-04T18:47:45.148Z,71.70
2022-10-04T18:50:17.844Z,71.57
2022-10-04T18:53:13.473Z,71.71
2022-10-04T18:56:04.465Z,72.06
2022-10-04T18:58:58.647Z,72.14
2022-10-04T19:01:59.843Z,72.38
2022-10-04T19:04:42.666Z,72.38
2022-10-04T19:07:14.131Z,72.44
2022-10-04T19:09:52.798Z,72.72
2022-10-04T19:12:25.658Z,72.88
2022-10-04T19:15:00.505Z,72.85
2022-10-04T19:17:38.156Z,72.69
2022-10-04T19:20:18.700Z,73.00
2022-10-04T19:23:07.119Z,73.00
2022-10-04T19:25:40.904Z,73.15
2022-10-04T19:28:18.442Z,73.08
2022-10-04T19:31:31.525Z,73.32
2022-10-04T19:34:11.679Z,73.32
2022-10-04T19:36:46.257Z,73.25
2022-10-04T19:39:51.563Z,73.28
2022-10-04T19:42:39.668Z,73.40
2022-10-04T19:45:25.741Z,73.29
2022-10-04T19:48:12.698Z,73.54
2022-10-04T19:50:52.065Z,73.54
2022-10-04T19:53:23.499Z,73.69
2022-10-04T19:55:56.986Z,73.42
2022-10-04T19:58:37.789Z,73.64
2022-10-04T20:01:11.689Z,73.80
2022-10-04T20:03:38.669Z,73.70
2022-10-04T20:06:07.385Z,73.79
2022-10-04T20:08:52.617Z,73.73
2022-10-04T20:11:25.773Z,73.67
2022-10-04T20:14:07.132Z,73.79
2022-10-04T20:16:49.738Z,73.87
2022-10-04T20:19:45.603Z,74.05
2022-10-04T20:22:11.875Z,74.00
2022-10-04T20:24:38.218Z,74.04
2022-10-04T20:27:28.250Z,73.92
2022-10-04T20:29:55.977Z,73.90
2022-10-04T20:32:34.169Z,74.11
2022-10-04T20:35:02.772Z,74.23
2022-10-04T20:37:44.223Z,74.23
2022-10-04T20:40:31.505Z,74.28
2022-10-04T20:43:13.176Z,74.43
2022-10-04T20:45:46.370Z,74.30
2022-10-04T20:48:18.417Z,74.38
2022-10-04T20:50:49.272Z,74.41
2022-10-04T20:53:20.867Z,74.19
2022-10-04T20:55:48.143Z,74.53
2022-10-04T20:58:35.145Z,74.76
2022-10-04T21:01:31.535Z,74.73
2022-10-04T21:04:34.045Z,74.65
2022-10-04T21:07:05.908Z,74.66
2022-10-04T21:09:34.333Z,74.60
2022-10-04T21:12:01.725Z,74.60
2022-10-04T21:14:27.989Z,74.82
2022-10-04T21:17:02.208Z,75.01
2022-10-04T21:19:32.315Z,74.83
2022-10-04T21:22:01.291Z,75.03
2022-10-04T21:24:40.733Z,74.95
2022-10-04T21:27:12.838Z,74.78
2022-10-04T21:29:39.674Z,75.15
2022-10-04T21:32:06.170Z,75.20
2022-10-04T21:34:52.479Z,75.02
2022-10-04T21:37:19.622Z,75.23
2022-10-04T21:39:46.057Z,75.09
2022-10-04T21:42:12.484Z,75.27
2022-10-04T21:44:38.822Z,75.23
2022-10-04T21:47:05.212Z,75.19
2022-10-04T21:49:31.529Z,75.32
2022-10-04T21:51:57.837Z,75.14
2022-10-04T21:54:24.183Z,75.36
2022-10-04T21:56:50.540Z,75.08
2022-10-04T21:59:16.856Z,75.26
2022-10-04T22:01:43.175Z,75.39
2022-10-04T22:04:09.510Z,75.32
2022-10-04T22:06:35.876Z,75.39
2022-10-04T22:09:02.212Z,75.46
2022-10-04T22:11:28.595Z,75.49
2022-10-04T22:13:54.924Z,75.52
2022-10-04T22:16:21.318Z,75.72
2022-10-04T22:18:47.736Z,75.80
2022-10-04T22:21:14.525Z,75.69
2022-10-04T22:23:43.260Z,75.92
2022-10-04T22:26:12.186Z,76.13
2022-10-04T22:28:43.056Z,76.07
2022-10-04T22:31:14.576Z,76.07
2022-10-04T22:33:43.500Z,75.99
2022-10-04T22:36:31.243Z,76.10
2022-10-04T22:38:58.725Z,76.10
2022-10-04T22:41:33.816Z,76.18
2022-10-04T22:44:10.203Z,76.23
2022-10-04T22:46:40.634Z,76.33
2022-10-04T22:49:12.224Z,76.31
2022-10-04T22:51:41.324Z,76.44
2022-10-04T22:54:12.967Z,76.73
2022-10-04T22:56:40.395Z,76.62
2022-10-04T22:59:10.799Z,76.58
2022-10-04T23:01:37.927Z,76.63
2022-10-04T23:04:11.841Z,76.86
2022-10-04T23:06:38.141Z,76.73
2022-10-04T23:09:04.475Z,76.56
2022-10-04T23:11:31.936Z,76.79
2022-10-04T23:13:58.499Z,76.75
2022-10-04T23:16:25.152Z,76.93
2022-10-04T23:19:00.533Z,76.89
2022-10-04T23:21:31.753Z,77.04
2022-10-04T23:24:05.441Z,77.00
2022-10-04T23:26:37.136Z,77.22
2022-10-04T23:29:06.986Z,77.12
2022-10-04T23:31:36.955Z,77.11
2022-10-04T23:34:16.284Z,77.03
2022-10-04T23:36:42.629Z,77.08
2022-10-04T23:39:13.732Z,77.44
2022-10-04T23:41:40.281Z,77.23
2022-10-04T23:44:13.167Z,77.23
2022-10-04T23:46:39.656Z,77.03
2022-10-04T23:49:09.204Z,77.07
2022-10-04T23:51:35.733Z,77.10
2022-10-04T23:54:02.077Z,77.06
2022-10-04T23:56:29.432Z,77.05
2022-10-04T23:58:58.595Z,76.88
